Arandis Airport


Codes: FYAR/ADI
Name: Arandis Airport
City: Arandis
Country: Namibia
Elevation: 1905 ft.

Photos at Arandis Airport


   Photos courtesy of SpottingLog. You can add your own sightings and photos by signing up for a free trial today.



No photos found.

Weather at Arandis Airport


Time (UTC)DescriptionTempratureWindCloud coverageVisibilityPressureHumidity
19-Apr-2024 03:00Clear Sky23°C2 mph, S1%10000m1013hPa32%
19-Apr-2024 06:00Clear Sky24°C2 mph, SE1%10000m1014hPa30%
19-Apr-2024 09:00Clear Sky31°C4 mph, NE0%10000m1014hPa20%
19-Apr-2024 12:00Clear Sky38°C11 mph, W0%10000m1011hPa15%
19-Apr-2024 15:00Clear Sky34°C13 mph, SW0%10000m1011hPa19%
19-Apr-2024 18:00Clear Sky26°C2 mph, S5%10000m1013hPa31%
19-Apr-2024 21:00Clear Sky27°C4 mph, E8%10000m1013hPa28%
20-Apr-2024 00:00Clear Sky27°C4 mph, SE4%10000m1012hPa26%
20-Apr-2024 03:00Clear Sky26°C4 mph, E5%10000m1011hPa27%
20-Apr-2024 06:00Clear Sky27°C7 mph, NE6%10000m1012hPa26%
20-Apr-2024 09:00Broken Clouds35°C11 mph, N57%10000m1012hPa17%
20-Apr-2024 12:00Broken Clouds37°C11 mph, W71%10000m1010hPa15%
20-Apr-2024 15:00Overcast Clouds34°C11 mph, SW98%10000m1009hPa19%
20-Apr-2024 18:00Overcast Clouds28°C4 mph, SW99%10000m1010hPa27%
20-Apr-2024 21:00Broken Clouds27°C4 mph, SE54%10000m1011hPa28%
21-Apr-2024 00:00Broken Clouds27°C4 mph, E74%10000m1010hPa27%
21-Apr-2024 03:00Overcast Clouds26°C4 mph, NE99%10000m1009hPa28%
21-Apr-2024 06:00Broken Clouds27°C9 mph, NE81%10000m1010hPa27%
21-Apr-2024 09:00Few Clouds35°C9 mph, N13%10000m1011hPa15%
21-Apr-2024 12:00Scattered Clouds38°C4 mph, W26%10000m1008hPa12%
21-Apr-2024 15:00Scattered Clouds33°C13 mph, SW40%10000m1007hPa18%
21-Apr-2024 18:00Few Clouds26°C4 mph, S21%10000m1010hPa29%
21-Apr-2024 21:00Clear Sky25°C4 mph, SE0%10000m1011hPa30%
22-Apr-2024 00:00Clear Sky25°C2 mph, SE0%10000m1010hPa30%
22-Apr-2024 03:00Clear Sky23°C0 mph, W0%10000m1010hPa32%
22-Apr-2024 06:00Clear Sky25°C2 mph, E0%10000m1012hPa28%
22-Apr-2024 09:00Clear Sky34°C4 mph, NE0%10000m1012hPa15%
22-Apr-2024 12:00Clear Sky38°C9 mph, W0%10000m1009hPa12%
22-Apr-2024 15:00Clear Sky34°C16 mph, SW0%10000m1008hPa17%
22-Apr-2024 18:00Clear Sky27°C7 mph, SW0%10000m1011hPa26%
22-Apr-2024 21:00Clear Sky25°C4 mph, S0%10000m1012hPa28%
23-Apr-2024 00:00Clear Sky23°C2 mph, S0%10000m1011hPa31%
23-Apr-2024 03:00Clear Sky22°C0 mph, SE0%10000m1011hPa33%
23-Apr-2024 06:00Clear Sky24°C2 mph, SE0%10000m1013hPa30%
23-Apr-2024 09:00Clear Sky32°C0 mph, E0%10000m1013hPa18%
23-Apr-2024 12:00Clear Sky37°C9 mph, SW0%10000m1010hPa13%
23-Apr-2024 15:00Clear Sky31°C13 mph, SW0%10000m1010hPa24%
23-Apr-2024 18:00Clear Sky23°C4 mph, SW0%10000m1012hPa41%
23-Apr-2024 21:00Clear Sky22°C2 mph, E0%10000m1013hPa37%
24-Apr-2024 00:00Clear Sky22°C4 mph, S0%10000m1012hPa34%